createdAt,value
2019-03-19T00:01:41.464Z,77.20
2019-03-19T00:04:11.489Z,76.50
2019-03-19T00:06:42.836Z,76.10
2019-03-19T00:09:13.756Z,76.10
2019-03-19T00:11:43.818Z,75.90
2019-03-19T00:14:15.187Z,75.80
2019-03-19T00:16:46.446Z,76.40
2019-03-19T00:19:16.443Z,76.60
2019-03-19T00:21:47.732Z,77.00
2019-03-19T00:24:19.052Z,76.20
2019-03-19T00:26:52.995Z,76.50
2019-03-19T00:29:25.542Z,76.00
2019-03-19T00:31:54.891Z,75.60
2019-03-19T00:34:27.828Z,75.00
2019-03-19T00:36:58.920Z,74.50
2019-03-19T00:39:30.101Z,74.60
2019-03-19T00:42:03.179Z,74.90
2019-03-19T00:44:34.943Z,74.70
2019-03-19T00:47:05.025Z,74.70
2019-03-19T00:49:35.113Z,74.90
2019-03-19T00:52:05.171Z,74.60
2019-03-19T00:54:39.889Z,74.50
2019-03-19T00:57:10.011Z,74.50
2019-03-19T00:59:40.057Z,74.70
2019-03-19T01:02:10.137Z,74.30
2019-03-19T01:04:40.267Z,74.40
2019-03-19T01:07:12.917Z,74.20
2019-03-19T01:09:46.435Z,74.20
2019-03-19T01:12:19.461Z,74.50
2019-03-19T01:14:50.467Z,75.50
2019-03-19T01:17:22.183Z,76.10
2019-03-19T01:19:56.457Z,76.80
2019-03-19T01:22:28.042Z,76.90
2019-03-19T01:24:59.613Z,76.10
2019-03-19T01:27:33.840Z,76.50
2019-03-19T01:30:05.095Z,77.40
2019-03-19T01:32:35.165Z,76.90
2019-03-19T01:35:07.777Z,76.80
2019-03-19T01:37:39.222Z,77.10
2019-03-19T01:40:14.952Z,77.00
2019-03-19T01:42:45.012Z,77.60
2019-03-19T01:45:16.013Z,76.80
2019-03-19T01:47:50.357Z,77.00
2019-03-19T01:50:20.436Z,77.00
2019-03-19T01:52:50.509Z,76.20
2019-03-19T01:55:25.504Z,75.60
2019-03-19T01:57:55.369Z,75.60
2019-03-19T02:00:25.474Z,76.10
2019-03-19T02:02:59.240Z,76.00
2019-03-19T02:05:29.056Z,76.80
2019-03-19T02:08:00.120Z,77.40
2019-03-19T02:10:33.461Z,77.50
2019-03-19T02:13:06.450Z,77.80
2019-03-19T02:15:41.760Z,77.90
2019-03-19T02:18:11.569Z,78.50
2019-03-19T02:20:46.191Z,78.30
2019-03-19T02:23:20.784Z,77.40
2019-03-19T02:25:51.938Z,77.20
2019-03-19T02:28:27.866Z,77.20
2019-03-19T02:30:59.225Z,77.00
2019-03-19T02:33:37.148Z,77.70
2019-03-19T02:36:07.261Z,79.40
2019-03-19T02:38:38.823Z,78.90
2019-03-19T02:41:09.956Z,79.40
2019-03-19T02:43:40.105Z,80.50
2019-03-19T02:46:10.273Z,79.80
2019-03-19T02:48:40.438Z,79.80
2019-03-19T02:51:15.971Z,80.40
2019-03-19T02:53:50.367Z,80.40
2019-03-19T02:56:32.759Z,80.70
2019-03-19T02:58:58.350Z,81.00
2019-03-19T03:01:30.053Z,81.40
2019-03-19T03:04:01.002Z,81.70
2019-03-19T03:06:31.096Z,81.30
2019-03-19T03:09:01.160Z,81.40
2019-03-19T03:11:31.238Z,81.50
2019-03-19T03:14:01.293Z,81.00
2019-03-19T03:16:32.420Z,81.00
2019-03-19T03:19:02.496Z,80.80
2019-03-19T03:21:34.763Z,80.40
2019-03-19T03:24:05.564Z,79.60
2019-03-19T03:26:47.382Z,78.80
2019-03-19T03:29:11.542Z,79.00
2019-03-19T03:31:43.193Z,79.70
2019-03-19T03:34:14.612Z,79.50
2019-03-19T03:36:44.700Z,79.40
2019-03-19T03:39:20.213Z,80.10
2019-03-19T03:41:50.258Z,80.40
2019-03-19T03:44:22.376Z,81.00
2019-03-19T03:46:53.796Z,82.40
2019-03-19T03:49:25.017Z,81.40
2019-03-19T03:51:56.562Z,81.70
2019-03-19T03:54:26.554Z,81.90
2019-03-19T03:57:02.560Z,81.30
2019-03-19T03:59:28.471Z,80.60
2019-03-19T04:01:58.527Z,80.60
2019-03-19T04:04:28.893Z,80.80
2019-03-19T04:06:59.424Z,81.60
2019-03-19T04:09:30.699Z,80.40
2019-03-19T04:12:02.451Z,80.20
2019-03-19T04:14:32.469Z,81.40
2019-03-19T04:17:02.609Z,81.20
2019-03-19T04:19:32.702Z,81.50
2019-03-19T04:22:02.788Z,81.60
2019-03-19T04:24:32.887Z,81.90
2019-03-19T04:27:15.278Z,82.10
2019-03-19T04:29:34.744Z,81.70
2019-03-19T04:32:04.830Z,81.30
2019-03-19T04:34:34.896Z,81.20
2019-03-19T04:37:05.005Z,81.40
2019-03-19T04:39:35.170Z,82.00
2019-03-19T04:42:05.186Z,81.90
2019-03-19T04:44:35.238Z,82.50
2019-03-19T04:47:05.318Z,83.20
2019-03-19T04:49:35.384Z,83.10
2019-03-19T04:52:05.464Z,82.50
2019-03-19T04:54:35.539Z,82.70
2019-03-19T04:57:05.675Z,82.70
2019-03-19T04:59:35.824Z,82.30
2019-03-19T05:02:07.362Z,82.10
2019-03-19T05:04:37.468Z,82.70
2019-03-19T05:07:08.416Z,83.20
2019-03-19T05:09:40.073Z,82.60
2019-03-19T05:12:11.829Z,82.00
2019-03-19T05:14:45.085Z,81.50
2019-03-19T05:17:15.100Z,81.80
2019-03-19T05:19:47.861Z,82.20
2019-03-19T05:22:18.989Z,82.20
2019-03-19T05:24:51.836Z,82.20
2019-03-19T05:27:24.109Z,82.50
2019-03-19T05:29:54.182Z,82.50
2019-03-19T05:32:26.661Z,82.60
2019-03-19T05:34:57.689Z,82.30
2019-03-19T05:37:29.629Z,81.80
2019-03-19T05:39:59.749Z,81.60
2019-03-19T05:42:32.739Z,81.60
2019-03-19T05:45:02.606Z,80.70
2019-03-19T05:47:38.189Z,80.00
2019-03-19T05:50:07.359Z,79.30
2019-03-19T05:52:37.431Z,78.90
2019-03-19T05:55:15.611Z,78.60
2019-03-19T05:57:49.751Z,78.10
2019-03-19T06:00:20.693Z,78.30
2019-03-19T06:02:50.460Z,77.90
2019-03-19T06:05:23.418Z,77.30
2019-03-19T06:07:54.765Z,76.70
2019-03-19T06:10:26.140Z,76.30
2019-03-19T06:12:56.314Z,76.20
2019-03-19T06:15:29.689Z,76.30
2019-03-19T06:17:59.521Z,76.90
2019-03-19T06:20:31.373Z,77.50
2019-03-19T06:23:01.536Z,77.70
2019-03-19T06:25:31.669Z,77.20
2019-03-19T06:28:03.394Z,77.20
2019-03-19T06:30:37.551Z,76.60
2019-03-19T06:33:09.028Z,75.80
2019-03-19T06:35:40.235Z,76.00
2019-03-19T06:38:13.514Z,75.50
2019-03-19T06:40:43.634Z,75.80
2019-03-19T06:43:13.648Z,75.60
2019-03-19T06:45:47.743Z,76.20
2019-03-19T06:48:21.408Z,77.10
2019-03-19T06:50:51.548Z,76.00
2019-03-19T06:53:22.790Z,74.70
2019-03-19T06:55:53.980Z,73.30
2019-03-19T06:58:24.092Z,71.60
2019-03-19T07:00:55.896Z,70.60
2019-03-19T07:03:27.084Z,69.50
2019-03-19T07:05:58.832Z,67.50
2019-03-19T07:08:30.102Z,58.70
2019-03-19T07:11:02.761Z,56.70
2019-03-19T07:13:34.405Z,56.40
2019-03-19T07:16:04.504Z,56.00
2019-03-19T07:18:39.229Z,57.10
2019-03-19T07:21:09.321Z,57.90
2019-03-19T07:23:43.377Z,50.60
2019-03-19T07:26:13.474Z,42.00
2019-03-19T07:28:44.503Z,34.50
2019-03-19T07:31:16.132Z,31.20
2019-03-19T07:33:47.570Z,31.30
2019-03-19T07:36:17.731Z,33.40
2019-03-19T07:38:52.177Z,35.50
2019-03-19T07:41:23.518Z,36.30
2019-03-19T07:43:57.804Z,35.10
2019-03-19T07:46:29.487Z,34.00
2019-03-19T07:49:01.976Z,30.90
2019-03-19T07:51:32.079Z,31.50
2019-03-19T07:54:02.301Z,31.20
2019-03-19T07:56:34.079Z,29.60
2019-03-19T07:59:04.201Z,28.20
2019-03-19T08:01:35.591Z,27.90
2019-03-19T08:04:07.131Z,28.10
2019-03-19T08:06:38.262Z,30.00
2019-03-19T08:09:11.366Z,32.40
2019-03-19T08:11:47.588Z,33.30
2019-03-19T08:14:21.637Z,33.70
2019-03-19T08:16:56.495Z,35.00
2019-03-19T08:19:27.680Z,35.80
2019-03-19T08:21:57.745Z,37.80
2019-03-19T08:24:27.840Z,37.20
2019-03-19T08:27:02.691Z,38.00
2019-03-19T08:29:35.604Z,38.30
2019-03-19T08:32:09.849Z,38.40
2019-03-19T08:34:39.931Z,38.80
2019-03-19T08:37:10.091Z,40.20
2019-03-19T08:39:40.335Z,41.70
2019-03-19T08:42:10.429Z,42.00
2019-03-19T08:44:40.549Z,42.30
2019-03-19T08:47:10.629Z,43.70
2019-03-19T08:49:40.753Z,45.50
2019-03-19T08:52:10.854Z,46.00
2019-03-19T08:54:41.017Z,46.00
2019-03-19T08:57:11.116Z,47.00
2019-03-19T08:59:41.346Z,47.10
2019-03-19T09:02:11.393Z,47.20
2019-03-19T09:04:41.460Z,46.20
2019-03-19T09:07:11.562Z,46.70
2019-03-19T09:09:41.692Z,45.70
2019-03-19T09:12:11.768Z,47.20
2019-03-19T09:14:41.851Z,45.10
2019-03-19T09:17:12.026Z,45.40
2019-03-19T09:19:42.130Z,43.90
2019-03-19T09:22:12.210Z,42.10
2019-03-19T09:24:42.292Z,39.80
2019-03-19T09:27:12.397Z,37.80
2019-03-19T09:29:42.393Z,37.00
2019-03-19T09:32:12.503Z,36.60
2019-03-19T09:34:42.586Z,36.90
2019-03-19T09:37:12.654Z,35.30
2019-03-19T09:39:42.754Z,36.60
2019-03-19T09:42:12.834Z,36.40
2019-03-19T09:44:42.952Z,37.40
2019-03-19T09:47:14.825Z,39.40
2019-03-19T09:49:44.870Z,42.90
2019-03-19T09:52:14.963Z,43.00
2019-03-19T09:54:45.077Z,45.80
2019-03-19T09:57:15.182Z,44.50
2019-03-19T09:59:45.340Z,44.80
2019-03-19T10:02:15.423Z,45.60
2019-03-19T10:04:45.609Z,45.20
2019-03-19T10:07:15.701Z,45.70
2019-03-19T10:09:45.847Z,46.50
2019-03-19T10:12:15.972Z,50.80
2019-03-19T10:14:46.091Z,49.80
2019-03-19T10:17:16.113Z,50.40
2019-03-19T10:19:47.381Z,49.60
2019-03-19T10:22:17.381Z,49.80
2019-03-19T10:24:47.499Z,51.40
2019-03-19T10:27:19.571Z,50.10
2019-03-19T10:29:49.382Z,49.50
2019-03-19T10:32:19.536Z,46.50
2019-03-19T10:34:49.627Z,46.00
2019-03-19T10:37:19.724Z,48.10
2019-03-19T10:39:49.905Z,45.00
2019-03-19T10:42:20.000Z,44.00
2019-03-19T10:44:50.176Z,42.50
2019-03-19T10:47:20.317Z,36.00
2019-03-19T10:49:50.417Z,33.40
2019-03-19T10:52:39.529Z,30.40
2019-03-19T10:55:15.088Z,24.50
2019-03-19T10:57:45.285Z,21.60
2019-03-19T11:00:20.723Z,22.30
2019-03-19T11:02:51.214Z,24.70
2019-03-19T11:05:21.539Z,26.10
2019-03-19T11:07:51.928Z,29.60
2019-03-19T11:10:22.298Z,31.20
2019-03-19T11:12:52.480Z,34.00
2019-03-19T11:15:22.630Z,36.20
2019-03-19T11:17:52.738Z,38.70
2019-03-19T11:20:22.910Z,40.10
2019-03-19T11:22:52.982Z,40.20
2019-03-19T11:25:23.206Z,39.90
2019-03-19T11:27:53.343Z,39.30
2019-03-19T11:30:24.924Z,40.40
2019-03-19T11:32:55.090Z,40.60
2019-03-19T11:35:25.319Z,40.90
2019-03-19T11:37:55.358Z,41.40
2019-03-19T11:40:26.252Z,40.20
2019-03-19T11:42:56.442Z,40.50
2019-03-19T11:45:26.519Z,40.50
2019-03-19T11:47:56.514Z,41.50
2019-03-19T11:50:26.613Z,42.00
2019-03-19T11:52:56.815Z,39.00
2019-03-19T11:55:27.071Z,40.60
2019-03-19T11:57:57.688Z,41.70
2019-03-19T12:00:40.318Z,40.70
2019-03-19T12:03:15.561Z,41.70
2019-03-19T12:05:42.081Z,41.40
2019-03-19T12:08:12.166Z,41.50
2019-03-19T12:10:42.342Z,41.40
2019-03-19T12:13:12.340Z,42.30
2019-03-19T12:15:42.757Z,40.20
2019-03-19T12:18:12.895Z,38.80
2019-03-19T12:20:42.984Z,40.00
2019-03-19T12:23:13.071Z,40.50
2019-03-19T12:25:43.163Z,38.30
2019-03-19T12:28:16.304Z,34.10
2019-03-19T12:30:46.439Z,33.10
2019-03-19T12:33:16.533Z,33.30
2019-03-19T12:35:46.546Z,33.60
2019-03-19T12:38:16.669Z,34.40
2019-03-19T12:40:46.821Z,34.20
2019-03-19T12:43:18.510Z,34.60
2019-03-19T12:45:48.540Z,35.70
2019-03-19T12:48:19.901Z,37.50
2019-03-19T12:50:50.000Z,35.80
2019-03-19T12:53:20.158Z,38.10
2019-03-19T12:55:52.232Z,37.10
2019-03-19T12:58:23.762Z,37.90
2019-03-19T13:00:55.261Z,38.90
2019-03-19T13:03:28.679Z,36.70
2019-03-19T13:05:59.875Z,36.50
2019-03-19T13:08:42.911Z,37.60
2019-03-19T13:11:13.067Z,38.20
2019-03-19T13:13:44.869Z,39.50
2019-03-19T13:16:15.051Z,36.70
2019-03-19T13:18:48.558Z,34.50
2019-03-19T13:21:23.614Z,34.90
2019-03-19T13:23:56.837Z,36.10
2019-03-19T13:26:28.821Z,36.00
2019-03-19T13:28:58.959Z,36.50
2019-03-19T13:31:32.101Z,36.70
2019-03-19T13:34:01.875Z,38.00
2019-03-19T13:36:36.554Z,36.40
2019-03-19T13:39:08.391Z,36.10
2019-03-19T13:41:42.040Z,35.20
2019-03-19T13:44:12.585Z,34.30
2019-03-19T13:46:44.802Z,35.10
2019-03-19T13:49:15.941Z,35.40
2019-03-19T13:51:47.080Z,37.00
2019-03-19T13:54:18.523Z,38.50
2019-03-19T13:56:49.688Z,39.60
2019-03-19T13:59:19.805Z,40.00
2019-03-19T14:01:49.850Z,39.30
2019-03-19T14:04:21.126Z,39.40
2019-03-19T14:06:51.418Z,38.70
2019-03-19T14:09:21.607Z,38.10
2019-03-19T14:11:51.624Z,37.30
2019-03-19T14:14:21.728Z,38.30
2019-03-19T14:16:51.803Z,38.40
2019-03-19T14:19:21.931Z,40.50
2019-03-19T14:21:52.040Z,40.70
2019-03-19T14:24:22.138Z,40.80
2019-03-19T14:26:53.951Z,40.90
2019-03-19T14:29:24.118Z,41.40
2019-03-19T14:31:54.208Z,40.80
2019-03-19T14:34:24.386Z,40.30
2019-03-19T14:36:54.532Z,39.10
2019-03-19T14:39:24.701Z,39.50
2019-03-19T14:41:54.788Z,41.50
2019-03-19T14:44:25.782Z,40.40
2019-03-19T14:46:56.362Z,40.70
2019-03-19T14:49:26.473Z,41.20
2019-03-19T14:51:56.639Z,39.70
2019-03-19T14:54:26.748Z,39.60
2019-03-19T14:56:56.900Z,39.50
2019-03-19T14:59:27.023Z,38.90
2019-03-19T15:01:58.821Z,39.20
2019-03-19T15:04:29.017Z,38.90
2019-03-19T15:06:59.139Z,38.20
2019-03-19T15:09:29.339Z,39.50
2019-03-19T15:11:59.553Z,40.10
2019-03-19T15:14:31.227Z,39.10
2019-03-19T15:17:05.161Z,40.50
2019-03-19T15:19:33.025Z,40.70
2019-03-19T15:22:03.149Z,44.30
2019-03-19T15:24:33.245Z,48.40
2019-03-19T15:27:03.264Z,49.50
2019-03-19T15:29:33.450Z,50.50
2019-03-19T15:32:03.740Z,51.10
2019-03-19T15:34:33.979Z,51.70
2019-03-19T15:37:04.092Z,52.20
2019-03-19T15:39:34.178Z,52.40
2019-03-19T15:42:04.305Z,53.10
2019-03-19T15:44:34.412Z,53.70
2019-03-19T15:47:04.498Z,54.50
2019-03-19T15:49:38.430Z,53.80
2019-03-19T15:52:08.885Z,54.30
2019-03-19T15:54:38.979Z,53.70
2019-03-19T15:57:09.156Z,55.60
2019-03-19T15:59:39.170Z,56.10
2019-03-19T16:02:09.272Z,55.40
2019-03-19T16:04:39.380Z,55.10
2019-03-19T16:07:09.472Z,55.20
2019-03-19T16:09:39.604Z,56.00
2019-03-19T16:12:09.795Z,56.10
2019-03-19T16:14:39.913Z,56.60
2019-03-19T16:17:10.098Z,56.90
2019-03-19T16:19:43.259Z,57.80
2019-03-19T16:22:14.829Z,58.30
2019-03-19T16:24:46.545Z,59.40
2019-03-19T16:27:16.640Z,60.10
2019-03-19T16:29:46.862Z,60.50
2019-03-19T16:32:19.450Z,61.00
2019-03-19T16:34:52.951Z,61.30
2019-03-19T16:37:24.351Z,62.00
2019-03-19T16:39:56.873Z,62.40
2019-03-19T16:42:25.556Z,62.50
2019-03-19T16:44:56.831Z,62.30
2019-03-19T16:47:26.950Z,62.40
2019-03-19T16:49:58.223Z,62.50
2019-03-19T16:52:29.785Z,62.90
2019-03-19T16:55:00.927Z,63.10
2019-03-19T16:57:31.032Z,62.90
2019-03-19T17:00:01.135Z,62.80
2019-03-19T17:02:31.238Z,63.30
2019-03-19T17:05:03.387Z,63.70
2019-03-19T17:07:37.413Z,63.80
2019-03-19T17:10:10.663Z,63.60
2019-03-19T17:12:43.196Z,64.00
2019-03-19T17:15:13.151Z,64.10
2019-03-19T17:17:44.490Z,64.60
2019-03-19T17:20:16.781Z,64.50
2019-03-19T17:22:53.168Z,64.80
2019-03-19T17:25:22.530Z,65.10
2019-03-19T17:27:53.774Z,65.30
2019-03-19T17:30:24.577Z,65.70
2019-03-19T17:32:55.986Z,66.10
2019-03-19T17:35:26.116Z,66.10
2019-03-19T17:37:59.421Z,66.60
2019-03-19T17:40:40.608Z,67.50
2019-03-19T17:43:04.253Z,67.80
2019-03-19T17:45:34.342Z,67.30
2019-03-19T17:48:15.782Z,67.70
2019-03-19T17:50:44.117Z,67.90
2019-03-19T17:53:14.201Z,67.00
2019-03-19T17:55:44.238Z,66.60
2019-03-19T17:58:14.799Z,67.40
2019-03-19T18:00:46.786Z,68.10
2019-03-19T18:03:16.867Z,68.20
2019-03-19T18:05:46.899Z,67.80
2019-03-19T18:08:18.497Z,67.80
2019-03-19T18:10:48.565Z,67.30
2019-03-19T18:13:18.601Z,67.00
2019-03-19T18:15:48.764Z,67.20
2019-03-19T18:18:18.855Z,67.40
2019-03-19T18:20:50.704Z,67.80
2019-03-19T18:23:23.803Z,68.30
2019-03-19T18:25:53.937Z,67.20
2019-03-19T18:28:24.022Z,66.60
2019-03-19T18:30:54.108Z,67.20
2019-03-19T18:33:24.189Z,67.20
2019-03-19T18:35:56.454Z,67.20
2019-03-19T18:38:26.020Z,66.80
2019-03-19T18:40:56.112Z,66.50
2019-03-19T18:43:28.638Z,66.20
2019-03-19T18:45:59.000Z,65.70
2019-03-19T18:48:29.078Z,65.80
2019-03-19T18:50:59.171Z,66.20
2019-03-19T18:53:29.280Z,66.20
2019-03-19T18:55:59.397Z,67.20
2019-03-19T18:58:29.587Z,67.60
2019-03-19T19:00:59.720Z,68.00
2019-03-19T19:03:29.828Z,67.70
2019-03-19T19:05:59.916Z,67.70
2019-03-19T19:08:30.132Z,67.80
2019-03-19T19:11:00.287Z,67.30
2019-03-19T19:13:33.446Z,67.50
2019-03-19T19:16:06.177Z,68.00
2019-03-19T19:18:36.362Z,68.40
2019-03-19T19:21:09.843Z,68.90
2019-03-19T19:23:39.920Z,69.30
2019-03-19T19:26:10.048Z,69.80
2019-03-19T19:28:40.175Z,70.60
2019-03-19T19:31:10.271Z,70.40
2019-03-19T19:33:40.387Z,69.80
2019-03-19T19:36:10.601Z,69.90
2019-03-19T19:38:40.712Z,70.30
2019-03-19T19:41:10.848Z,70.60
2019-03-19T19:43:41.057Z,70.30
2019-03-19T19:46:11.211Z,70.00
2019-03-19T19:48:41.344Z,69.90
2019-03-19T19:51:14.381Z,69.80
2019-03-19T19:53:44.473Z,70.20
2019-03-19T19:56:17.704Z,70.40
2019-03-19T19:58:47.819Z,70.60
2019-03-19T20:01:17.904Z,72.10
2019-03-19T20:03:48.077Z,71.60
2019-03-19T20:06:18.188Z,71.40
2019-03-19T20:08:48.369Z,71.50
2019-03-19T20:11:18.648Z,71.70
2019-03-19T20:13:48.822Z,72.00
2019-03-19T20:16:20.696Z,72.90
2019-03-19T20:18:50.902Z,73.00
2019-03-19T20:21:21.035Z,72.40
2019-03-19T20:23:51.130Z,72.10
2019-03-19T20:26:21.277Z,72.30
2019-03-19T20:28:51.372Z,73.10
2019-03-19T20:31:21.459Z,74.40
2019-03-19T20:33:51.590Z,74.80
2019-03-19T20:36:21.661Z,74.80
2019-03-19T20:38:51.821Z,74.60
2019-03-19T20:41:21.828Z,74.50
2019-03-19T20:43:52.028Z,74.70
2019-03-19T20:46:22.132Z,74.80
2019-03-19T20:48:52.245Z,74.80
2019-03-19T20:51:22.356Z,74.70
2019-03-19T20:53:52.484Z,74.70
2019-03-19T20:56:22.646Z,74.90
2019-03-19T20:58:52.814Z,74.70
2019-03-19T21:01:22.824Z,74.70
2019-03-19T21:03:52.921Z,75.00
2019-03-19T21:06:22.980Z,74.40
2019-03-19T21:08:53.084Z,74.50
2019-03-19T21:11:23.129Z,75.00
2019-03-19T21:13:53.148Z,75.10
2019-03-19T21:16:23.262Z,74.00
2019-03-19T21:18:53.431Z,73.40
2019-03-19T21:21:26.738Z,73.40
2019-03-19T21:23:56.858Z,72.90
2019-03-19T21:26:26.889Z,72.80
2019-03-19T21:28:56.931Z,72.70
2019-03-19T21:31:26.971Z,72.90
2019-03-19T21:33:56.997Z,73.30
2019-03-19T21:36:27.103Z,73.20
2019-03-19T21:38:57.212Z,73.20
2019-03-19T21:41:27.223Z,73.20
2019-03-19T21:43:57.490Z,73.50
2019-03-19T21:46:27.593Z,73.40
2019-03-19T21:48:57.609Z,73.60
2019-03-19T21:51:27.776Z,74.00
2019-03-19T21:53:57.772Z,74.70
2019-03-19T21:56:29.674Z,75.00
2019-03-19T21:58:59.707Z,73.80
2019-03-19T22:01:29.877Z,73.70
2019-03-19T22:04:03.268Z,73.90
2019-03-19T22:06:31.887Z,74.20
2019-03-19T22:09:04.345Z,74.40
2019-03-19T22:11:33.720Z,73.80
2019-03-19T22:14:03.727Z,73.60
2019-03-19T22:16:36.845Z,74.10
2019-03-19T22:19:09.721Z,73.70
2019-03-19T22:21:41.025Z,74.10
2019-03-19T22:24:11.051Z,74.30
2019-03-19T22:26:44.087Z,74.40
2019-03-19T22:29:17.595Z,74.30
2019-03-19T22:31:53.740Z,74.80
2019-03-19T22:34:23.841Z,75.50
2019-03-19T22:36:53.959Z,76.00
2019-03-19T22:39:25.968Z,75.80
2019-03-19T22:41:57.248Z,76.00
2019-03-19T22:44:32.975Z,75.90
2019-03-19T22:47:03.481Z,75.70
2019-03-19T22:49:37.479Z,75.30
2019-03-19T22:52:13.444Z,75.30
2019-03-19T22:54:43.820Z,74.80
2019-03-19T22:57:13.874Z,74.60
2019-03-19T22:59:45.214Z,74.50
2019-03-19T23:05:01.104Z,74.80
2019-03-19T23:07:32.648Z,75.00
2019-03-19T23:10:02.856Z,75.20
2019-03-19T23:12:33.042Z,75.40
2019-03-19T23:15:04.344Z,75.90
2019-03-19T23:17:35.181Z,76.20
2019-03-19T23:20:07.706Z,76.10
2019-03-19T23:22:40.808Z,76.00
2019-03-19T23:25:16.691Z,76.10
2019-03-19T23:27:48.784Z,76.60
2019-03-19T23:30:18.614Z,77.10
2019-03-19T23:32:50.474Z,76.40
2019-03-19T23:35:20.574Z,76.40
2019-03-19T23:37:52.052Z,76.50
2019-03-19T23:40:22.066Z,76.60
2019-03-19T23:42:52.163Z,77.10
2019-03-19T23:45:29.532Z,76.40
2019-03-19T23:47:59.388Z,76.60
2019-03-19T23:50:29.455Z,76.60
2019-03-19T23:53:00.690Z,76.50
2019-03-19T23:55:37.603Z,76.40
2019-03-19T23:58:07.688Z,76.50
